Terminal Aerodrome Forecast
Issued by NWS Pocatello, ID

Home | Current Version | Previous Version | Text Only | Print | Product List | Glossary On
Versions: 1 2 3 4 5 6 7 8 9 10 11 12 13 14
534
FTUS45 KPIH 251739
TAFBYI
TAF
KBYI 251739Z 2518/2618 27015KT P6SM SCT035 SCT180
     FM252300 29015KT P6SM FEW035
     FM260200 27008KT P6SM SKC
     FM261400 07008KT P6SM FEW040 FEW130=

USA.gov is the U.S. government's official web portal to all federal, state and local government web resources and services.